createdAt,value
2023-04-08T05:00:36.309Z,98155.81
2023-04-08T05:05:37.836Z,98169.47
2023-04-08T05:10:41.193Z,98179.47
2023-04-08T05:15:42.890Z,98182.25
2023-04-08T05:20:44.360Z,98189.22
2023-04-08T05:25:45.990Z,98198.16
2023-04-08T05:30:52.020Z,98199.81
2023-04-08T05:35:53.607Z,98204.81
2023-04-08T05:40:55.601Z,98192.56
2023-04-08T05:45:57.104Z,98201.47
2023-04-08T05:50:58.521Z,98208.16
2023-04-08T05:55:59.945Z,98200.91
2023-04-08T06:01:01.547Z,98211.50
2023-04-08T06:06:03.131Z,98203.66
2023-04-08T06:11:05.200Z,98213.41
2023-04-08T06:16:14.678Z,98213.94
2023-04-08T06:21:16.535Z,98227.34
2023-04-08T06:26:18.057Z,98227.75
2023-04-08T06:31:19.600Z,98230.50
2023-04-08T06:36:21.065Z,98238.88
2023-04-08T06:41:22.501Z,98232.28
2023-04-08T06:46:25.569Z,98238.97
2023-04-08T06:51:27.816Z,98248.00
2023-04-08T06:56:29.263Z,98253.28
2023-04-08T07:01:31.970Z,98254.19
2023-04-08T07:06:33.452Z,98266.72
2023-04-08T07:11:35.018Z,98263.56
2023-04-08T07:16:36.542Z,98268.28
2023-04-08T07:21:37.987Z,98271.19
2023-04-08T07:26:39.545Z,98281.47
2023-04-08T07:31:42.684Z,98276.03
2023-04-08T07:36:44.268Z,98296.44
2023-04-08T07:41:45.963Z,98294.47
2023-04-08T07:46:51.399Z,98292.59
2023-04-08T07:51:53.119Z,98309.41
2023-04-08T07:56:54.626Z,98307.13
2023-04-08T08:01:56.379Z,98319.09
2023-04-08T08:06:58.098Z,98313.72
2023-04-08T08:11:59.671Z,98323.31
2023-04-08T08:17:01.472Z,98323.41
2023-04-08T08:22:03.020Z,98332.59
2023-04-08T08:27:06.597Z,98334.44
2023-04-08T08:32:08.495Z,98339.13
2023-04-08T08:37:10.308Z,98332.44
2023-04-08T08:42:23.275Z,98346.16
2023-04-08T08:47:24.916Z,98357.16
2023-04-08T08:52:26.433Z,98362.34
2023-04-08T08:57:27.963Z,98367.19
2023-04-08T09:02:32.310Z,98373.66
2023-04-08T09:07:40.567Z,98378.44
2023-04-08T09:12:56.580Z,98384.59
2023-04-08T09:17:58.778Z,98382.53
2023-04-08T09:23:02.304Z,98392.97
2023-04-08T09:28:03.883Z,98399.53
2023-04-08T09:33:07.324Z,98415.59
2023-04-08T09:38:09.237Z,98410.84
2023-04-08T09:43:15.899Z,98408.69
2023-04-08T09:48:21.957Z,98413.19
2023-04-08T09:53:36.701Z,98413.81
2023-04-08T09:58:49.656Z,98413.13
2023-04-08T10:03:54.454Z,98418.00
2023-04-08T10:08:57.076Z,98412.19
2023-04-08T10:13:58.807Z,98417.03
2023-04-08T10:19:00.444Z,98422.56
2023-04-08T10:24:07.747Z,98423.94
2023-04-08T10:29:18.442Z,98425.97
2023-04-08T10:34:22.867Z,98429.66
2023-04-08T10:39:26.012Z,98428.97
2023-04-08T10:44:27.676Z,98430.34
2023-04-08T10:49:33.687Z,98420.00
2023-04-08T10:54:36.333Z,98425.03
2023-04-08T10:59:39.694Z,98432.44
2023-04-08T11:04:44.833Z,98433.47
2023-04-08T11:09:46.352Z,98428.16
2023-04-08T11:14:49.668Z,98433.47
2023-04-08T11:19:52.620Z,98422.81
2023-04-08T11:24:56.222Z,98438.31
2023-04-08T11:29:57.942Z,98439.78
2023-04-08T11:35:05.027Z,98449.50
2023-04-08T11:40:11.325Z,98445.66
2023-04-08T11:45:16.062Z,98451.66
2023-04-08T11:50:25.503Z,98456.97
2023-04-08T11:55:28.224Z,98457.97
2023-04-08T12:00:31.109Z,98454.84
2023-04-08T12:05:32.622Z,98449.28
2023-04-08T12:10:34.131Z,98447.81
2023-04-08T12:15:35.621Z,98454.66
2023-04-08T12:20:37.110Z,98457.84
2023-04-08T12:25:38.980Z,98461.13
2023-04-08T12:30:40.924Z,98468.09
2023-04-08T12:35:43.384Z,98472.19
2023-04-08T12:40:44.915Z,98473.94
2023-04-08T12:45:46.828Z,98474.88
2023-04-08T12:50:48.370Z,98475.84
2023-04-08T12:55:51.352Z,98487.44
2023-04-08T13:00:52.912Z,98481.75
2023-04-08T13:05:54.436Z,98486.75
2023-04-08T13:10:55.976Z,98489.94
2023-04-08T13:15:57.780Z,98486.06
2023-04-08T13:21:02.302Z,98484.56
2023-04-08T13:26:03.835Z,98495.69
2023-04-08T13:31:05.743Z,98491.50
2023-04-08T13:36:07.294Z,98502.97
2023-04-08T13:41:08.789Z,98503.34
2023-04-08T13:46:10.351Z,98506.97
2023-04-08T13:51:11.971Z,98500.34
2023-04-08T13:56:13.543Z,98500.97
2023-04-08T14:01:15.090Z,98496.41
2023-04-08T14:06:16.581Z,98501.75
2023-04-08T14:11:18.055Z,98507.81
2023-04-08T14:16:19.575Z,98507.97
2023-04-08T14:21:21.184Z,98507.34
2023-04-08T14:26:22.643Z,98514.72
2023-04-08T14:31:24.241Z,98507.53
2023-04-08T14:36:27.830Z,98505.53
2023-04-08T14:55:47.019Z,98512.28
2023-04-08T15:00:48.582Z,98521.09
2023-04-08T15:05:50.204Z,98521.72
2023-04-08T15:10:51.771Z,98527.69
2023-04-08T15:15:53.224Z,98530.16
2023-04-08T15:20:54.837Z,98536.47
2023-04-08T15:25:57.495Z,98541.63
2023-04-08T15:30:59.006Z,98543.63
2023-04-08T15:36:03.843Z,98542.25
2023-04-08T15:41:05.602Z,98548.75
2023-04-08T15:46:07.202Z,98553.22
2023-04-08T15:51:09.080Z,98554.06
2023-04-08T15:56:16.664Z,98560.25
2023-04-08T16:01:19.980Z,98557.34
2023-04-08T16:06:21.478Z,98565.31
2023-04-08T16:11:23.682Z,98573.59
2023-04-08T16:16:25.243Z,98579.56
2023-04-08T16:21:26.683Z,98588.81
2023-04-08T16:26:28.626Z,98587.09
2023-04-08T16:36:33.035Z,98595.63
2023-04-08T16:41:34.431Z,98597.06
2023-04-08T16:46:36.512Z,98602.84
2023-04-08T16:51:37.964Z,98604.13
2023-04-08T16:56:44.134Z,98612.72
2023-04-08T17:01:45.703Z,98621.16
2023-04-08T17:06:47.105Z,98622.28
2023-04-08T17:11:48.551Z,98629.56
2023-04-08T17:16:50.452Z,98624.84
2023-04-08T17:21:52.011Z,98639.75
2023-04-08T17:26:53.478Z,98637.53
2023-04-08T17:31:54.915Z,98650.72
2023-04-08T17:36:57.137Z,98648.53
2023-04-08T17:41:58.627Z,98647.94
2023-04-08T17:47:00.532Z,98647.41
2023-04-08T17:52:02.125Z,98652.09
2023-04-08T17:57:03.936Z,98652.28
2023-04-08T18:02:05.411Z,98659.06
2023-04-08T18:07:06.889Z,98667.19
2023-04-08T18:12:08.276Z,98680.22
2023-04-08T18:17:09.749Z,98686.63
2023-04-08T18:22:11.293Z,98693.47
2023-04-08T18:27:12.761Z,98700.19
2023-04-08T18:32:14.156Z,98708.53
2023-04-08T18:37:16.892Z,98706.16
2023-04-08T18:42:18.435Z,98709.91
2023-04-08T18:47:20.024Z,98710.50
2023-04-08T18:52:21.429Z,98717.59
2023-04-08T18:57:22.924Z,98722.63
2023-04-08T19:02:24.495Z,98727.34
2023-04-08T19:07:27.256Z,98722.41
2023-04-08T19:12:28.664Z,98728.78
2023-04-08T19:17:30.632Z,98723.59
2023-04-08T19:22:32.770Z,98737.66
2023-04-08T19:27:34.164Z,98729.66
2023-04-08T19:32:36.226Z,98728.34
2023-04-08T19:37:37.643Z,98737.81
2023-04-08T19:42:39.066Z,98723.84
2023-04-08T19:47:43.123Z,98729.41
2023-04-08T19:52:44.624Z,98736.91
2023-04-08T19:57:46.051Z,98740.78
2023-04-08T20:02:47.857Z,98731.44
2023-04-08T20:07:49.829Z,98736.25
2023-04-08T20:12:52.566Z,98743.78
2023-04-08T20:17:54.092Z,98735.63
2023-04-08T20:22:56.011Z,98745.75
2023-04-08T20:27:57.442Z,98759.25
2023-04-08T20:32:58.896Z,98754.47
2023-04-08T20:38:00.346Z,98748.81
2023-04-08T20:43:02.321Z,98740.44
2023-04-08T20:48:05.511Z,98739.13
2023-04-08T20:53:07.570Z,98734.34
2023-04-08T20:58:09.235Z,98738.31
2023-04-08T21:03:10.760Z,98743.97
2023-04-08T21:08:12.390Z,98746.28
2023-04-08T21:13:13.809Z,98739.00
2023-04-08T21:18:15.329Z,98735.03
2023-04-08T21:23:16.805Z,98751.63
2023-04-08T21:28:18.231Z,98765.00
2023-04-08T21:33:19.648Z,98763.31
2023-04-08T21:38:21.087Z,98760.66
2023-04-08T21:43:22.624Z,98757.19
2023-04-08T21:48:24.080Z,98769.66
2023-04-08T21:53:25.518Z,98779.66
2023-04-08T21:58:28.101Z,98771.97
